Time;durP1;ratioP1;P1;durP2;ratioP2;P2;SDS_P1;SDS_P2;PMS_P1;PMS_P2;Temp;Humidity;BMP_temperature;BMP_pressure;BME280_temperature;BME280_humidity;BME280_pressure;Samples;Min_cycle;Max_cycle;Signal;HPM_P1;HPM_P2
2023/12/13 00:01:50;;;;;;;6.18;2.58;;;5.30;99.90;;;;;;5007893;28;20038;-86
2023/12/13 00:04:16;;;;;;;3.92;2.25;;;5.30;99.90;;;;;;5009276;28;20052;-85
2023/12/13 00:06:41;;;;;;;5.75;2.90;;;5.30;99.90;;;;;;4990714;28;20057;-86
2023/12/13 00:09:10;;;;;;;5.55;2.60;;;5.30;99.90;;;;;;5017589;28;20061;-85
2023/12/13 00:11:36;;;;;;;5.10;2.53;;;5.30;99.90;;;;;;5014683;28;20036;-85
2023/12/13 00:14:02;;;;;;;5.05;2.20;;;5.30;99.90;;;;;;4993616;28;20030;-84
2023/12/13 00:16:27;;;;;;;4.68;2.30;;;5.30;99.90;;;;;;5008580;28;20487;-85
2023/12/13 00:18:53;;;;;;;4.28;2.35;;;5.30;99.90;;;;;;5008843;28;20421;-85
2023/12/13 00:21:18;;;;;;;3.90;1.77;;;5.30;99.90;;;;;;5004525;28;20045;-84
2023/12/13 00:23:47;;;;;;;5.00;2.20;;;5.30;99.90;;;;;;5010964;28;20112;-84
2023/12/13 00:26:17;;;;;;;6.25;2.42;;;5.30;99.90;;;;;;5003225;28;20499;-85
2023/12/13 00:28:43;;;;;;;3.80;1.80;;;5.30;99.90;;;;;;5017107;28;20034;-85
2023/12/13 00:31:10;;;;;;;4.35;2.30;;;5.30;99.90;;;;;;5005221;28;20063;-85
2023/12/13 00:33:35;;;;;;;3.72;1.98;;;5.40;99.90;;;;;;5013442;28;20131;-86
2023/12/13 00:36:02;;;;;;;4.45;1.80;;;5.40;99.90;;;;;;5011975;28;20490;-84
2023/12/13 00:38:27;;;;;;;2.95;1.80;;;5.30;99.90;;;;;;5013005;28;20088;-86
2023/12/13 00:40:52;;;;;;;4.00;2.03;;;5.30;99.90;;;;;;5014739;28;20030;-85
2023/12/13 00:43:18;;;;;;;2.63;1.50;;;5.30;99.90;;;;;;5016402;28;20111;-85
2023/12/13 00:45:43;;;;;;;3.58;1.65;;;5.40;99.90;;;;;;5016277;28;20041;-86
2023/12/13 00:48:09;;;;;;;3.08;1.73;;;5.30;99.90;;;;;;5011288;28;20526;-85
2023/12/13 00:50:35;;;;;;;3.22;1.75;;;5.30;99.90;;;;;;5022547;28;20072;-86
2023/12/13 00:53:00;;;;;;;3.10;1.50;;;5.40;99.90;;;;;;5016137;28;20104;-85
2023/12/13 00:55:26;;;;;;;2.97;1.42;;;5.40;99.90;;;;;;5017022;28;20100;-84
2023/12/13 00:57:52;;;;;;;3.60;1.65;;;5.30;99.90;;;;;;5022272;28;20106;-86
2023/12/13 01:00:18;;;;;;;3.97;2.25;;;5.30;99.90;;;;;;5016636;28;20030;-86
2023/12/13 01:02:43;;;;;;;2.85;1.67;;;5.30;99.90;;;;;;5016935;28;20034;-85
2023/12/13 01:05:09;;;;;;;2.45;1.38;;;5.30;99.90;;;;;;5024957;28;20040;-85
2023/12/13 01:07:34;;;;;;;2.97;1.40;;;5.30;99.90;;;;;;5017378;28;20026;-84
2023/12/13 01:10:00;;;;;;;4.80;2.08;;;5.30;99.90;;;;;;5008721;28;20042;-86
2023/12/13 01:12:26;;;;;;;2.67;1.23;;;5.30;99.90;;;;;;5016574;28;20033;-84
2023/12/13 01:14:51;;;;;;;2.08;1.13;;;5.30;99.90;;;;;;5015801;28;20034;-86
2023/12/13 01:17:17;;;;;;;3.25;1.33;;;5.30;99.90;;;;;;5021638;28;20040;-85
2023/12/13 01:19:42;;;;;;;2.35;1.38;;;5.30;99.90;;;;;;5014033;28;20037;-85
2023/12/13 01:22:08;;;;;;;2.63;1.60;;;5.30;99.90;;;;;;5015863;28;20036;-86
2023/12/13 01:24:34;;;;;;;2.60;1.60;;;5.30;99.90;;;;;;5016174;28;20395;-85
2023/12/13 01:26:59;;;;;;;2.38;1.30;;;5.30;99.90;;;;;;5011868;28;20028;-85
2023/12/13 01:29:24;;;;;;;1.73;1.17;;;5.30;99.90;;;;;;5011359;28;20391;-85
2023/12/13 01:31:50;;;;;;;4.43;1.65;;;5.30;99.90;;;;;;5015565;28;20084;-86
2023/12/13 01:34:16;;;;;;;2.67;1.58;;;5.30;99.90;;;;;;5013708;28;20022;-85
2023/12/13 01:36:42;;;;;;;2.95;1.65;;;5.30;99.90;;;;;;5012813;28;20041;-85
2023/12/13 01:39:07;;;;;;;2.30;1.13;;;5.30;99.90;;;;;;5015370;28;20030;-86
2023/12/13 01:41:33;;;;;;;2.17;1.15;;;5.30;99.90;;;;;;5010990;28;20049;-87
2023/12/13 01:43:59;;;;;;;2.95;1.33;;;5.40;99.90;;;;;;5014012;28;20021;-85
2023/12/13 01:46:24;;;;;;;2.58;1.50;;;5.40;99.90;;;;;;5011831;28;20050;-85
2023/12/13 01:48:50;;;;;;;1.25;0.90;;;5.30;99.90;;;;;;5009853;28;20030;-86
2023/12/13 01:51:16;;;;;;;2.97;1.20;;;5.40;99.90;;;;;;5012754;28;20060;-86
2023/12/13 01:53:42;;;;;;;3.00;1.58;;;5.40;99.90;;;;;;5013063;28;20041;-85
2023/12/13 01:56:10;;;;;;;2.58;1.15;;;5.40;99.90;;;;;;5010989;28;20108;-87
2023/12/13 01:58:37;;;;;;;1.90;1.20;;;5.40;99.90;;;;;;5011716;28;20470;-85
2023/12/13 02:01:03;;;;;;;2.03;1.00;;;5.40;99.90;;;;;;5014124;28;20455;-85
2023/12/13 02:03:29;;;;;;;2.05;1.35;;;5.40;99.90;;;;;;5009302;28;20103;-85
2023/12/13 02:05:55;;;;;;;2.50;1.33;;;5.40;99.90;;;;;;5009164;28;20482;-86
2023/12/13 02:08:22;;;;;;;2.03;1.45;;;5.40;99.90;;;;;;5012947;28;20037;-87
2023/12/13 02:10:48;;;;;;;1.63;0.98;;;5.40;99.90;;;;;;5011214;28;20048;-85
2023/12/13 02:13:15;;;;;;;2.80;1.58;;;5.40;99.90;;;;;;5007392;28;20112;-86
2023/12/13 02:15:43;;;;;;;1.30;0.88;;;5.40;99.90;;;;;;5007134;28;20053;-86
2023/12/13 02:18:14;;;;;;;2.20;1.40;;;5.40;99.90;;;;;;5007237;28;20038;-86
2023/12/13 02:20:40;;;;;;;;;;;5.40;99.90;;;;;;5011711;28;20022;-86
2023/12/13 02:23:05;;;;;;;2.65;1.48;;;5.40;99.90;;;;;;5009810;28;19917;-86
2023/12/13 02:25:42;;;;;;;2.80;1.40;;;5.40;99.90;;;;;;5014827;28;20069;-86
2023/12/13 02:28:08;;;;;;;2.85;1.50;;;5.40;99.90;;;;;;5009617;28;20460;-86
2023/12/13 02:30:34;;;;;;;2.40;1.45;;;5.40;99.90;;;;;;5011044;28;20066;-86
2023/12/13 02:32:59;;;;;;;2.85;1.27;;;5.50;99.90;;;;;;5008907;28;20080;-86
2023/12/13 02:35:25;;;;;;;2.75;1.67;;;5.40;99.90;;;;;;5010678;28;20070;-86
2023/12/13 02:37:51;;;;;;;2.65;1.52;;;5.40;99.90;;;;;;5009259;28;20080;-86
2023/12/13 02:40:17;;;;;;;2.45;1.23;;;5.40;99.90;;;;;;5011932;28;20038;-86
2023/12/13 02:42:43;;;;;;;2.30;1.35;;;5.40;99.90;;;;;;5012463;28;20466;-85
2023/12/13 02:45:11;;;;;;;2.22;1.30;;;5.40;99.90;;;;;;5011965;28;20048;-86
2023/12/13 02:47:41;;;;;;;2.33;1.20;;;5.40;99.90;;;;;;5005714;28;20100;-85
2023/12/13 02:50:11;;;;;;;2.95;1.40;;;5.40;99.90;;;;;;5009188;28;20046;-85
2023/12/13 02:52:37;;;;;;;3.38;1.42;;;5.40;99.90;;;;;;5011828;28;20050;-87
2023/12/13 02:55:03;;;;;;;3.75;1.70;;;5.40;99.90;;;;;;5015600;28;20068;-86
2023/12/13 02:57:29;;;;;;;2.67;1.58;;;5.40;99.90;;;;;;5013299;28;20471;-87
2023/12/13 02:59:54;;;;;;;2.33;1.20;;;5.50;99.90;;;;;;5014621;28;20037;-86
2023/12/13 03:02:20;;;;;;;3.20;1.42;;;5.50;99.90;;;;;;5016090;28;20045;-86
2023/12/13 03:04:45;;;;;;;1.83;1.30;;;5.40;99.90;;;;;;5009927;28;20058;-86
2023/12/13 03:07:11;;;;;;;2.58;1.17;;;5.40;99.90;;;;;;5013188;28;20386;-85
2023/12/13 03:09:36;;;;;;;2.08;1.30;;;5.40;99.90;;;;;;5009657;28;20489;-86
2023/12/13 03:12:02;;;;;;;1.45;1.00;;;5.40;99.90;;;;;;5012674;28;20034;-87
2023/12/13 03:14:28;;;;;;;2.20;1.08;;;5.40;99.90;;;;;;5019805;28;20061;-87
2023/12/13 03:16:53;;;;;;;2.65;1.33;;;5.50;99.90;;;;;;5015668;28;20041;-86
2023/12/13 03:19:18;;;;;;;2.47;1.67;;;5.40;99.90;;;;;;5012855;28;20022;-86
2023/12/13 03:21:44;;;;;;;2.17;1.17;;;5.40;99.90;;;;;;5013290;28;20065;-86
2023/12/13 03:24:09;;;;;;;2.50;1.52;;;5.40;99.90;;;;;;5021250;28;20033;-87
2023/12/13 03:26:35;;;;;;;2.97;1.40;;;5.40;99.90;;;;;;5012837;28;20566;-86
2023/12/13 03:29:00;;;;;;;3.13;1.85;;;5.40;99.90;;;;;;5015432;28;20501;-87
2023/12/13 03:31:26;;;;;;;2.85;1.42;;;5.40;99.90;;;;;;5012650;28;20033;-85
2023/12/13 03:33:52;;;;;;;3.47;1.73;;;5.40;99.90;;;;;;5007716;28;20416;-85
2023/12/13 03:36:17;;;;;;;3.30;1.83;;;5.40;99.90;;;;;;5018737;28;20108;-87
2023/12/13 03:38:46;;;;;;;3.85;1.40;;;5.40;99.90;;;;;;5014814;28;20030;-86
2023/12/13 03:41:12;;;;;;;2.97;1.52;;;5.40;99.90;;;;;;5009330;28;20030;-86
2023/12/13 03:43:37;;;;;;;2.75;1.70;;;5.40;99.90;;;;;;5011900;28;20033;-87
2023/12/13 03:46:04;;;;;;;3.53;1.83;;;5.40;99.90;;;;;;5013798;28;20120;-85
2023/12/13 03:48:29;;;;;;;3.28;1.98;;;5.40;99.90;;;;;;5010346;28;20120;-87
2023/12/13 03:50:55;;;;;;;3.22;1.50;;;5.40;99.90;;;;;;5017137;28;20554;-86
2023/12/13 03:53:20;;;;;;;2.83;1.65;;;5.40;99.90;;;;;;5009576;28;20033;-86
2023/12/13 03:55:46;;;;;;;2.58;1.48;;;5.40;99.90;;;;;;5011122;28;20034;-85
2023/12/13 03:58:11;;;;;;;3.25;1.80;;;5.40;99.90;;;;;;5026493;28;20061;-85
2023/12/13 04:00:37;;;;;;;2.97;1.63;;;5.50;99.90;;;;;;5026645;28;20069;-85
2023/12/13 04:03:02;;;;;;;3.25;1.65;;;5.40;99.90;;;;;;5010157;28;20053;-86
2023/12/13 04:05:28;;;;;;;2.83;1.55;;;5.40;99.90;;;;;;5009886;28;20135;-86
2023/12/13 04:07:53;;;;;;;2.92;1.55;;;5.40;99.90;;;;;;5019727;28;20026;-87
2023/12/13 04:10:19;;;;;;;3.28;1.67;;;5.40;99.90;;;;;;5016019;28;20482;-86
2023/12/13 04:12:45;;;;;;;3.58;1.75;;;5.40;99.90;;;;;;5020727;28;20053;-85
2023/12/13 04:15:11;;;;;;;2.92;1.50;;;5.40;99.90;;;;;;5027048;28;20083;-85
2023/12/13 04:17:36;;;;;;;3.03;1.85;;;5.40;99.90;;;;;;5019161;28;20049;-85
2023/12/13 04:20:02;;;;;;;4.28;2.15;;;5.40;99.90;;;;;;5023937;28;20511;-86
2023/12/13 04:22:28;;;;;;;2.65;1.50;;;5.40;99.90;;;;;;5014391;28;20061;-85
2023/12/13 04:24:53;;;;;;;3.13;1.70;;;5.40;99.90;;;;;;5019413;28;20030;-86
2023/12/13 04:27:19;;;;;;;3.40;1.98;;;5.40;99.90;;;;;;5019049;28;20037;-85
2023/12/13 04:29:44;;;;;;;2.50;1.38;;;5.40;99.90;;;;;;5017881;28;20041;-85
2023/12/13 04:32:10;;;;;;;2.47;1.48;;;5.40;99.90;;;;;;5020491;28;20425;-85
2023/12/13 04:34:35;;;;;;;3.08;1.85;;;5.30;99.90;;;;;;5014996;28;20096;-86
2023/12/13 04:37:01;;;;;;;2.83;1.52;;;5.40;99.90;;;;;;5035886;28;20037;-85
2023/12/13 04:39:26;;;;;;;2.72;1.52;;;5.40;99.90;;;;;;5020856;28;20108;-86
2023/12/13 04:41:52;;;;;;;2.38;1.30;;;5.40;99.90;;;;;;5015123;28;20042;-86
2023/12/13 04:44:17;;;;;;;2.97;1.20;;;5.40;99.90;;;;;;5022298;28;20029;-85
2023/12/13 04:46:43;;;;;;;1.95;1.38;;;5.40;99.90;;;;;;5013122;28;20044;-85
2023/12/13 04:49:08;;;;;;;2.47;1.33;;;5.30;99.90;;;;;;5013398;28;20433;-84
2023/12/13 04:51:34;;;;;;;2.80;1.50;;;5.30;99.90;;;;;;5014855;28;20058;-84
2023/12/13 04:53:59;;;;;;;3.83;1.65;;;5.30;99.90;;;;;;5029444;28;20378;-85
2023/12/13 04:56:25;;;;;;;2.42;1.52;;;5.30;99.90;;;;;;5033560;28;20084;-84
2023/12/13 04:58:50;;;;;;;2.88;1.60;;;5.30;99.90;;;;;;5015438;28;20034;-84
2023/12/13 05:01:16;;;;;;;3.53;1.60;;;5.30;99.90;;;;;;5014694;28;20034;-85
2023/12/13 05:03:42;;;;;;;2.92;1.55;;;5.30;99.90;;;;;;5015295;28;20107;-84
2023/12/13 05:06:07;;;;;;;3.17;1.30;;;5.30;99.90;;;;;;5015251;28;20038;-83
2023/12/13 05:08:33;;;;;;;2.38;1.20;;;5.30;99.90;;;;;;5011391;28;20034;-83
2023/12/13 05:10:59;;;;;;;3.13;1.60;;;5.30;99.90;;;;;;5008953;28;20034;-86
2023/12/13 05:13:25;;;;;;;2.00;1.30;;;5.30;99.90;;;;;;5007933;28;20041;-85
2023/12/13 05:15:51;;;;;;;2.58;1.50;;;5.30;99.90;;;;;;5014080;28;20109;-83
2023/12/13 05:18:16;;;;;;;1.83;1.08;;;5.30;99.90;;;;;;5006855;28;20113;-84
2023/12/13 05:20:42;;;;;;;3.03;1.50;;;5.20;99.90;;;;;;5007905;28;20394;-83
2023/12/13 05:23:07;;;;;;;2.03;1.30;;;5.30;99.90;;;;;;5010753;28;20040;-83
2023/12/13 05:25:33;;;;;;;2.78;1.38;;;5.20;99.90;;;;;;5011356;28;20471;-83
2023/12/13 05:27:58;;;;;;;3.55;1.38;;;5.20;99.90;;;;;;5009504;28;20066;-74
2023/12/13 05:30:24;;;;;;;2.53;1.55;;;5.20;99.90;;;;;;5005744;28;20073;-75
2023/12/13 05:32:51;;;;;;;1.83;1.13;;;5.20;99.90;;;;;;5011191;28;20041;-76
2023/12/13 05:35:16;;;;;;;2.13;1.27;;;5.20;99.90;;;;;;5010955;28;20030;-75
2023/12/13 05:37:42;;;;;;;2.13;1.02;;;5.20;99.90;;;;;;5009246;28;20107;-77
2023/12/13 05:40:08;;;;;;;1.30;0.90;;;5.20;99.90;;;;;;5008532;28;20034;-78
2023/12/13 05:42:34;;;;;;;2.33;1.23;;;5.20;99.90;;;;;;5012548;28;20045;-77
2023/12/13 05:44:59;;;;;;;2.22;1.40;;;5.10;99.90;;;;;;5010808;28;20030;-77
2023/12/13 05:47:25;;;;;;;3.08;1.27;;;5.10;99.90;;;;;;5009839;28;20394;-76
2023/12/13 05:49:51;;;;;;;2.60;1.48;;;5.20;99.90;;;;;;5016494;28;20378;-78
2023/12/13 05:52:18;;;;;;;1.73;1.23;;;5.10;99.90;;;;;;5020323;28;20058;-76
2023/12/13 05:54:43;;;;;;;2.60;1.10;;;5.20;99.90;;;;;;5005753;28;20025;-77
2023/12/13 05:57:09;;;;;;;2.58;1.30;;;5.10;99.90;;;;;;5011068;28;20056;-78
2023/12/13 05:59:35;;;;;;;2.25;1.38;;;5.20;99.90;;;;;;5004787;28;20077;-72
2023/12/13 06:02:00;;;;;;;2.08;1.15;;;5.10;99.90;;;;;;5002824;28;20483;-76
2023/12/13 06:04:26;;;;;;;2.63;1.35;;;5.10;99.90;;;;;;5008363;28;20038;-78
2023/12/13 06:06:51;;;;;;;3.08;1.52;;;5.10;99.90;;;;;;5010303;28;20038;-73
2023/12/13 06:09:18;;;;;;;2.70;1.35;;;5.10;99.90;;;;;;5007043;28;20041;-74
2023/12/13 06:11:44;;;;;;;4.03;1.55;;;5.10;99.90;;;;;;5015432;28;20030;-73
2023/12/13 06:14:09;;;;;;;2.55;1.40;;;5.10;99.90;;;;;;5013823;28;20036;-73
2023/12/13 06:16:35;;;;;;;2.40;1.35;;;5.10;99.90;;;;;;5014645;28;20100;-74
2023/12/13 06:19:00;;;;;;;2.47;1.20;;;5.10;99.90;;;;;;5011845;28;20109;-74
2023/12/13 06:21:26;;;;;;;2.13;1.10;;;5.10;99.90;;;;;;5011304;28;20033;-73
2023/12/13 06:23:51;;;;;;;1.60;0.93;;;5.10;99.90;;;;;;5014097;28;20080;-72
2023/12/13 06:26:17;;;;;;;1.60;1.13;;;5.10;99.90;;;;;;5009808;28;20474;-77
2023/12/13 06:28:43;;;;;;;3.20;1.55;;;5.10;99.90;;;;;;5011442;28;20084;-77
2023/12/13 06:31:09;;;;;;;2.38;1.40;;;5.10;99.90;;;;;;5010074;28;20034;-78
2023/12/13 06:33:34;;;;;;;2.30;1.40;;;5.10;99.90;;;;;;5007074;28;20160;-77
2023/12/13 06:36:00;;;;;;;2.55;1.35;;;5.10;99.90;;;;;;5003372;28;20065;-76
2023/12/13 06:38:25;;;;;;;3.42;1.65;;;5.10;99.90;;;;;;5011796;28;20026;-77
2023/12/13 06:40:51;;;;;;;2.25;1.40;;;5.10;99.90;;;;;;5013579;28;20505;-78
2023/12/13 06:43:16;;;;;;;3.10;1.25;;;5.10;99.90;;;;;;5009319;28;20029;-76
2023/12/13 06:45:42;;;;;;;2.60;1.55;;;5.10;99.90;;;;;;5010741;28;20510;-78
2023/12/13 06:48:08;;;;;;;2.25;1.27;;;5.10;99.90;;;;;;5008910;28;20467;-77
2023/12/13 06:50:34;;;;;;;2.97;1.48;;;5.10;99.90;;;;;;5015299;28;20459;-77
2023/12/13 06:53:00;;;;;;;5.60;2.05;;;5.10;99.90;;;;;;5010982;28;20121;-76
2023/12/13 06:55:26;;;;;;;2.95;1.77;;;5.10;99.90;;;;;;5010886;28;20029;-77
2023/12/13 06:57:51;;;;;;;4.13;1.80;;;5.00;99.90;;;;;;5014116;28;20382;-77
2023/12/13 07:00:21;;;;;;;2.15;1.33;;;5.10;99.90;;;;;;5012137;28;20463;-76
2023/12/13 07:02:47;;;;;;;2.65;1.70;;;5.10;99.90;;;;;;5010242;28;20065;-79
2023/12/13 07:05:12;;;;;;;3.85;1.55;;;5.10;99.90;;;;;;5008749;28;20042;-79
2023/12/13 07:07:38;;;;;;;2.13;1.30;;;5.10;99.90;;;;;;5009850;28;20443;-77
2023/12/13 07:10:04;;;;;;;3.00;1.88;;;5.10;99.90;;;;;;5006674;28;20037;-73
2023/12/13 07:12:29;;;;;;;1.85;1.38;;;5.10;99.90;;;;;;5007769;28;20407;-74
2023/12/13 07:14:57;;;;;;;3.05;1.73;;;5.10;99.90;;;;;;5014829;28;20510;-73
2023/12/13 07:17:23;;;;;;;2.80;1.55;;;5.10;99.90;;;;;;5008444;28;20041;-73
2023/12/13 07:19:49;;;;;;;3.25;1.55;;;5.10;99.90;;;;;;5008905;28;20030;-73
2023/12/13 07:22:15;;;;;;;3.75;1.75;;;5.10;99.90;;;;;;5010248;28;20398;-73
2023/12/13 07:24:41;;;;;;;3.97;2.33;;;5.00;99.90;;;;;;5020628;28;20034;-74
2023/12/13 07:27:06;;;;;;;3.03;1.73;;;5.00;99.90;;;;;;5009981;28;20075;-73
2023/12/13 07:29:33;;;;;;;3.42;1.70;;;5.10;99.90;;;;;;5010556;28;20133;-74
2023/12/13 07:31:59;;;;;;;3.83;1.85;;;5.10;99.90;;;;;;5010221;28;20038;-73
2023/12/13 07:34:24;;;;;;;4.07;1.80;;;5.00;99.90;;;;;;5012363;28;20018;-73
2023/12/13 07:36:52;;;;;;;4.43;2.05;;;5.10;99.90;;;;;;5005384;28;20050;-73
2023/12/13 07:39:18;;;;;;;4.35;2.33;;;5.10;99.90;;;;;;5009551;28;20058;-75
2023/12/13 07:41:44;;;;;;;3.95;2.05;;;5.00;99.90;;;;;;5016552;28;20070;-73
2023/12/13 07:44:09;;;;;;;4.38;2.00;;;5.00;99.90;;;;;;5016170;28;20030;-74
2023/12/13 07:46:36;;;;;;;4.25;2.33;;;5.00;99.90;;;;;;5008601;28;20042;-72
2023/12/13 07:49:03;;;;;;;5.30;2.08;;;5.00;99.90;;;;;;5022497;28;20398;-73
2023/12/13 07:51:32;;;;;;;5.65;2.53;;;5.00;99.90;;;;;;5014229;28;20081;-71
2023/12/13 07:53:59;;;;;;;4.30;2.53;;;5.00;99.90;;;;;;5014315;28;20034;-73
2023/12/13 07:56:25;;;;;;;3.45;1.80;;;5.00;99.90;;;;;;5013343;28;20094;-76
2023/12/13 07:58:51;;;;;;;4.88;2.53;;;5.00;99.90;;;;;;5021069;28;20131;-73
2023/12/13 08:01:17;;;;;;;4.45;2.00;;;5.00;99.90;;;;;;5012945;28;20026;-72
2023/12/13 08:03:43;;;;;;;5.65;2.33;;;5.00;99.90;;;;;;5010286;28;20044;-74
2023/12/13 08:06:18;;;;;;;4.78;2.22;;;5.00;99.90;;;;;;5012723;28;20474;-73
2023/12/13 08:08:44;;;;;;;3.70;2.03;;;5.00;99.90;;;;;;5009388;28;20030;-73
2023/12/13 08:11:11;;;;;;;4.50;2.20;;;5.00;99.90;;;;;;5013015;28;20038;-73
2023/12/13 08:13:36;;;;;;;5.53;2.60;;;5.00;99.90;;;;;;5012398;28;20099;-77
2023/12/13 08:16:02;;;;;;;3.95;1.92;;;5.00;99.90;;;;;;5013068;28;20136;-73
2023/12/13 08:18:27;;;;;;;3.33;1.60;;;5.00;99.90;;;;;;5010348;28;20034;-74
2023/12/13 08:20:53;;;;;;;3.80;2.00;;;5.00;99.90;;;;;;5015814;28;20026;-76
2023/12/13 08:23:18;;;;;;;3.78;2.20;;;5.00;99.90;;;;;;5014188;28;20066;-73
2023/12/13 08:25:44;;;;;;;3.15;1.65;;;5.00;99.90;;;;;;5011596;28;20159;-77
2023/12/13 08:28:10;;;;;;;2.95;2.05;;;5.00;99.90;;;;;;5010491;28;20033;-73
2023/12/13 08:30:35;;;;;;;4.32;1.90;;;5.00;99.90;;;;;;5008528;28;20164;-73
2023/12/13 08:33:01;;;;;;;3.55;1.80;;;5.00;99.90;;;;;;5011068;28;20041;-72
2023/12/13 08:35:27;;;;;;;3.78;1.90;;;5.00;99.90;;;;;;5012774;28;20034;-73
2023/12/13 08:37:53;;;;;;;3.45;1.63;;;5.00;99.90;;;;;;5013328;28;20073;-74
2023/12/13 08:40:18;;;;;;;2.90;1.75;;;5.00;99.90;;;;;;5013806;28;20035;-77
2023/12/13 08:42:44;;;;;;;3.40;1.70;;;5.00;99.90;;;;;;5015761;28;20437;-74
2023/12/13 08:45:10;;;;;;;4.07;1.70;;;5.00;99.90;;;;;;5011709;28;20045;-73
2023/12/13 08:47:36;;;;;;;5.63;2.72;;;5.00;99.90;;;;;;5012037;28;20364;-79
2023/12/13 08:50:02;;;;;;;3.55;1.73;;;5.00;99.90;;;;;;5008921;28;20034;-72
2023/12/13 08:52:29;;;;;;;4.35;1.65;;;5.00;99.90;;;;;;4973600;28;1006892;-74
2023/12/13 08:54:54;;;;;;;3.92;1.80;;;5.10;99.90;;;;;;5015241;28;20030;-73
2023/12/13 08:57:20;;;;;;;3.15;1.67;;;5.00;99.90;;;;;;5015135;28;20402;-74
2023/12/13 08:59:46;;;;;;;4.55;2.22;;;5.10;99.90;;;;;;5013543;28;20426;-75
2023/12/13 09:02:11;;;;;;;5.18;1.80;;;5.00;99.90;;;;;;5011967;28;20022;-73
2023/12/13 09:04:37;;;;;;;3.80;1.58;;;5.00;99.90;;;;;;5013288;28;20091;-77
2023/12/13 09:07:03;;;;;;;2.90;1.70;;;5.00;99.90;;;;;;5011075;28;20460;-73
2023/12/13 09:09:31;;;;;;;3.58;1.67;;;5.00;99.90;;;;;;5011047;28;20037;-73
2023/12/13 09:11:57;;;;;;;3.53;2.00;;;5.00;99.90;;;;;;5011665;28;20461;-73
2023/12/13 09:14:23;;;;;;;3.03;1.75;;;5.00;99.90;;;;;;5013790;28;20486;-74
2023/12/13 09:16:48;;;;;;;2.20;1.10;;;5.00;99.90;;;;;;5012747;28;20038;-73
2023/12/13 09:19:14;;;;;;;3.10;1.25;;;5.00;99.90;;;;;;5010941;28;20054;-75
2023/12/13 09:21:40;;;;;;;2.72;1.42;;;5.00;99.90;;;;;;5013563;28;20029;-73
2023/12/13 09:24:07;;;;;;;3.58;1.70;;;5.00;99.90;;;;;;5020837;28;20021;-73
2023/12/13 09:26:33;;;;;;;3.83;1.50;;;5.00;99.90;;;;;;5013492;28;20128;-76
2023/12/13 09:28:58;;;;;;;4.43;1.70;;;5.10;99.90;;;;;;5013106;28;20025;-73
2023/12/13 09:31:24;;;;;;;3.92;1.98;;;5.10;99.90;;;;;;5013896;28;20034;-75
2023/12/13 09:33:52;;;;;;;3.67;1.73;;;5.00;99.90;;;;;;5010810;28;20076;-72
2023/12/13 09:36:17;;;;;;;3.83;1.48;;;5.10;99.90;;;;;;5012142;28;20029;-72
2023/12/13 09:38:43;;;;;;;2.75;1.65;;;5.10;99.90;;;;;;5012720;28;20037;-73
2023/12/13 09:41:09;;;;;;;3.25;1.70;;;5.10;99.90;;;;;;5012396;28;20459;-73
2023/12/13 09:43:40;;;;;;;3.33;1.60;;;5.10;99.90;;;;;;5010942;28;20125;-72
2023/12/13 09:46:08;;;;;;;2.85;1.45;;;5.00;99.90;;;;;;5016526;28;20091;-76
2023/12/13 09:48:37;;;;;;;4.35;2.08;;;5.00;99.90;;;;;;5014126;28;20356;-73
2023/12/13 09:51:05;;;;;;;3.13;1.77;;;5.10;99.90;;;;;;5018401;28;20137;-74
2023/12/13 09:53:33;;;;;;;3.38;1.75;;;5.00;99.90;;;;;;5008625;28;20036;-73
2023/12/13 09:56:00;;;;;;;5.00;2.05;;;5.00;99.90;;;;;;5019263;28;20041;-73
2023/12/13 09:58:26;;;;;;;3.95;2.20;;;5.00;99.90;;;;;;5015730;28;20040;-76
2023/12/13 10:00:52;;;;;;;3.83;2.00;;;5.00;99.90;;;;;;5013005;28;20033;-72
2023/12/13 10:03:17;;;;;;;4.97;1.67;;;5.00;99.90;;;;;;5009743;28;20037;-77
2023/12/13 10:05:46;;;;;;;3.58;1.67;;;5.00;99.90;;;;;;5012550;28;20034;-75
2023/12/13 10:08:11;;;;;;;2.97;1.60;;;5.00;99.90;;;;;;5010385;28;20030;-76
2023/12/13 10:10:37;;;;;;;3.70;1.80;;;5.10;99.90;;;;;;5010688;28;20171;-82
2023/12/13 10:13:03;;;;;;;3.42;1.83;;;5.00;99.90;;;;;;5013019;28;20123;-78
2023/12/13 10:15:31;;;;;;;3.70;2.08;;;5.00;99.90;;;;;;5013626;28;20041;-78
2023/12/13 10:17:58;;;;;;;3.15;1.58;;;5.00;99.90;;;;;;5009411;28;20026;-77
2023/12/13 10:20:24;;;;;;;4.75;2.35;;;5.00;99.90;;;;;;5013130;28;20041;-77
2023/12/13 10:22:49;;;;;;;3.70;1.75;;;5.00;99.90;;;;;;5010426;28;20034;-80
2023/12/13 10:25:15;;;;;;;2.72;1.42;;;5.00;99.90;;;;;;5008548;28;20042;-77
2023/12/13 10:27:41;;;;;;;4.03;1.58;;;5.00;99.90;;;;;;5010736;28;20049;-78
2023/12/13 10:30:07;;;;;;;3.65;1.70;;;5.00;99.90;;;;;;5020273;28;20106;-77
2023/12/13 10:32:33;;;;;;;3.85;1.80;;;5.00;99.90;;;;;;5009364;28;20169;-77
2023/12/13 10:35:02;;;;;;;3.28;1.48;;;5.10;99.90;;;;;;5010546;28;20037;-79
2023/12/13 10:37:30;;;;;;;3.90;1.60;;;5.10;99.90;;;;;;5012565;28;20042;-78
2023/12/13 10:39:57;;;;;;;3.65;1.88;;;5.10;99.90;;;;;;5012401;28;20038;-78
2023/12/13 10:42:24;;;;;;;3.47;1.67;;;5.10;99.90;;;;;;5009093;28;20029;-84
2023/12/13 10:44:51;;;;;;;3.00;1.70;;;5.00;99.90;;;;;;5010993;28;20034;-78
2023/12/13 10:47:23;;;;;;;2.40;1.50;;;5.10;99.90;;;;;;5012802;28;20044;-77
2023/12/13 10:49:54;;;;;;;3.00;1.60;;;5.10;99.90;;;;;;5009160;28;20026;-77
2023/12/13 10:52:21;;;;;;;2.58;1.23;;;5.00;99.90;;;;;;5011986;28;20050;-77
2023/12/13 10:54:51;;;;;;;2.50;1.35;;;5.10;99.90;;;;;;5010838;28;20040;-77
2023/12/13 10:57:17;;;;;;;2.75;1.45;;;5.10;99.90;;;;;;5012327;28;20033;-79
2023/12/13 10:59:43;;;;;;;2.33;1.30;;;5.10;99.90;;;;;;5009351;28;20053;-78
2023/12/13 11:02:12;;;;;;;2.60;1.52;;;5.00;99.90;;;;;;5008761;28;20112;-77
2023/12/13 11:04:39;;;;;;;3.08;1.50;;;5.00;99.90;;;;;;5009781;28;20383;-82
2023/12/13 11:07:04;;;;;;;1.92;1.27;;;5.00;99.90;;;;;;5010802;28;20037;-77
2023/12/13 11:09:30;;;;;;;2.85;1.42;;;5.00;99.90;;;;;;5026857;28;20041;-78
2023/12/13 11:11:59;;;;;;;2.92;1.60;;;5.00;99.90;;;;;;5009580;28;20092;-78
2023/12/13 11:14:28;;;;;;;2.95;1.63;;;5.00;99.90;;;;;;5010506;28;20459;-78
2023/12/13 11:16:57;;;;;;;4.20;1.92;;;5.00;99.90;;;;;;5005523;28;20045;-80
2023/12/13 11:19:24;;;;;;;4.88;2.25;;;5.00;99.90;;;;;;5008207;28;20025;-79
2023/12/13 11:21:50;;;;;;;2.92;1.80;;;5.10;99.90;;;;;;5011355;28;20026;-78
2023/12/13 11:24:25;;;;;;;4.18;2.08;;;5.00;99.90;;;;;;5009541;28;20029;-77
2023/12/13 11:26:53;;;;;;;3.10;1.63;;;5.10;99.90;;;;;;5001050;28;20030;-78
2023/12/13 11:29:28;;;;;;;2.50;1.52;;;5.00;99.90;;;;;;5008586;28;20038;-78
2023/12/13 11:32:04;;;;;;;3.97;1.70;;;5.00;99.90;;;;;;5008422;28;20030;-78
2023/12/13 11:34:45;;;;;;;3.13;1.88;;;5.00;99.90;;;;;;5006849;28;20088;-78
2023/12/13 11:37:12;;;;;;;2.42;1.13;;;5.00;99.90;;;;;;5011747;28;20125;-77
2023/12/13 11:39:38;;;;;;;1.83;1.25;;;5.00;99.90;;;;;;5021180;28;20037;-81
2023/12/13 11:42:09;;;;;;;3.75;1.80;;;4.90;99.90;;;;;;5008362;28;20031;-79
2023/12/13 11:44:37;;;;;;;2.00;1.40;;;4.90;99.90;;;;;;5009205;28;20045;-77
2023/12/13 11:47:08;;;;;;;2.30;1.02;;;5.00;99.90;;;;;;5010963;28;20572;-78
2023/12/13 11:49:35;;;;;;;3.13;1.67;;;4.90;99.90;;;;;;5004358;28;20022;-79
2023/12/13 11:52:03;;;;;;;3.03;1.77;;;4.90;99.90;;;;;;5009403;28;20419;-77
2023/12/13 11:54:28;;;;;;;2.42;1.13;;;4.90;99.90;;;;;;5012551;28;20367;-78
2023/12/13 11:56:54;;;;;;;4.03;1.77;;;4.90;99.90;;;;;;5008397;28;20049;-78
2023/12/13 11:59:20;;;;;;;2.13;1.30;;;4.90;99.90;;;;;;5010493;28;20108;-80
2023/12/13 12:01:46;;;;;;;3.55;1.60;;;5.00;99.90;;;;;;5009230;28;20033;-77
2023/12/13 12:04:13;;;;;;;2.28;1.40;;;5.00;99.90;;;;;;5009358;28;20018;-78
2023/12/13 12:06:46;;;;;;;2.95;1.35;;;4.90;99.90;;;;;;5009594;28;20426;-78
2023/12/13 12:09:11;;;;;;;1.92;1.42;;;4.90;99.90;;;;;;5008560;28;20453;-78
2023/12/13 12:11:37;;;;;;;2.83;1.52;;;4.80;99.90;;;;;;5008931;28;20092;-80
2023/12/13 12:14:08;;;;;;;3.53;1.58;;;4.80;99.90;;;;;;5009474;28;20109;-78
2023/12/13 12:16:33;;;;;;;2.90;1.23;;;4.80;99.90;;;;;;5009899;28;20030;-78
2023/12/13 12:18:59;;;;;;;2.50;1.33;;;4.80;99.90;;;;;;5007138;28;20449;-78
2023/12/13 12:21:27;;;;;;;3.13;1.65;;;4.80;99.90;;;;;;5010709;28;20453;-81
2023/12/13 12:23:52;;;;;;;1.38;1.05;;;4.90;99.90;;;;;;5006752;28;20082;-78
2023/12/13 12:26:18;;;;;;;1.65;0.93;;;4.80;99.90;;;;;;5011333;28;20475;-78
2023/12/13 12:28:43;;;;;;;2.00;1.10;;;4.80;99.90;;;;;;5013176;28;20029;-78
2023/12/13 12:31:09;;;;;;;3.03;1.50;;;4.80;99.90;;;;;;5014156;28;20083;-80
2023/12/13 12:33:35;;;;;;;1.90;1.15;;;4.80;99.90;;;;;;5006973;28;20030;-77
2023/12/13 12:36:01;;;;;;;1.75;1.17;;;4.80;99.90;;;;;;5013107;28;20033;-79
2023/12/13 12:38:26;;;;;;;3.13;1.48;;;4.80;99.90;;;;;;5017334;28;20037;-82
2023/12/13 12:40:52;;;;;;;2.30;1.25;;;4.80;99.90;;;;;;5012159;28;20034;-79
2023/12/13 12:43:19;;;;;;;1.85;1.40;;;4.80;99.90;;;;;;5016748;28;20037;-78
2023/12/13 12:45:45;;;;;;;2.97;1.38;;;4.80;99.90;;;;;;5018188;28;20120;-77
2023/12/13 12:48:10;;;;;;;2.30;1.13;;;4.80;99.90;;;;;;5011240;28;20447;-78
2023/12/13 12:50:36;;;;;;;2.20;1.10;;;4.80;99.90;;;;;;5019295;28;20376;-86
2023/12/13 12:53:02;;;;;;;2.22;1.10;;;4.80;99.90;;;;;;5033593;28;20034;-81